Time;durP1;ratioP1;P1;durP2;ratioP2;P2;SDS_P1;SDS_P2;PMS_P1;PMS_P2;Temp;Humidity;BMP_temperature;BMP_pressure;BME280_temperature;BME280_humidity;BME280_pressure;Samples;Min_cycle;Max_cycle;Signal;HPM_P1;HPM_P2
2022/07/27 00:01:04;;;;;;;4.35;2.60;;;16.80;99.90;;;;;;5072097;28;20256;-51
2022/07/27 00:03:34;;;;;;;5.32;2.30;;;16.70;99.90;;;;;;5072863;28;20213;-52
2022/07/27 00:06:02;;;;;;;5.90;2.83;;;16.70;99.90;;;;;;5071993;28;20882;-52
2022/07/27 00:08:30;;;;;;;5.90;2.33;;;16.70;99.90;;;;;;5071860;28;20765;-52
2022/07/27 00:10:59;;;;;;;6.13;2.67;;;16.80;99.90;;;;;;5072386;28;20197;-52
2022/07/27 00:13:28;;;;;;;4.70;2.55;;;16.80;99.90;;;;;;5072932;28;20209;-52
2022/07/27 00:15:56;;;;;;;6.05;2.50;;;16.80;99.90;;;;;;5072717;28;20258;-52
2022/07/27 00:18:24;;;;;;;7.47;2.97;;;16.80;99.90;;;;;;5072434;28;20801;-52
2022/07/27 00:20:53;;;;;;;7.32;2.70;;;16.80;99.90;;;;;;5072473;28;20221;-52
2022/07/27 00:23:21;;;;;;;6.32;2.60;;;16.80;99.90;;;;;;5058203;28;20205;-52
2022/07/27 00:25:49;;;;;;;5.32;2.40;;;16.80;99.90;;;;;;5072868;28;20212;-52
2022/07/27 00:28:18;;;;;;;7.50;2.60;;;16.80;99.90;;;;;;5071636;28;20229;-52
2022/07/27 00:30:46;;;;;;;8.02;2.40;;;16.80;99.90;;;;;;5072756;28;20201;-51
2022/07/27 00:33:14;;;;;;;5.70;2.15;;;16.80;99.90;;;;;;5075098;28;20341;-51
2022/07/27 00:35:44;;;;;;;6.82;2.67;;;16.80;99.90;;;;;;5077049;28;20208;-52
2022/07/27 00:38:15;;;;;;;4.20;2.20;;;16.90;99.90;;;;;;5071115;28;20228;-52
2022/07/27 00:40:43;;;;;;;6.55;2.63;;;16.90;99.90;;;;;;5071971;28;20633;-51
2022/07/27 00:43:12;;;;;;;4.43;2.10;;;16.90;99.90;;;;;;5072351;28;20224;-52
2022/07/27 00:45:40;;;;;;;6.82;2.20;;;16.90;99.90;;;;;;5072273;28;20622;-52
2022/07/27 00:48:08;;;;;;;7.03;2.45;;;16.90;99.90;;;;;;5071560;28;20324;-52
2022/07/27 00:50:37;;;;;;;7.30;2.40;;;16.80;99.90;;;;;;5071661;28;20620;-52
2022/07/27 00:53:05;;;;;;;5.03;2.35;;;16.80;99.90;;;;;;5072012;28;20279;-52
2022/07/27 00:55:35;;;;;;;7.10;2.90;;;16.80;99.90;;;;;;5071851;28;20266;-51
2022/07/27 00:58:04;;;;;;;7.47;3.03;;;16.80;99.90;;;;;;5072242;28;20224;-51
2022/07/27 01:00:32;;;;;;;11.50;3.00;;;16.80;99.90;;;;;;5071782;28;20654;-52
2022/07/27 01:03:01;;;;;;;6.45;2.70;;;16.80;99.90;;;;;;5071766;28;20205;-52
2022/07/27 01:05:36;;;;;;;8.05;3.13;;;16.80;99.90;;;;;;5070748;28;20249;-52
2022/07/27 01:08:11;;;;;;;8.70;2.78;;;16.80;99.90;;;;;;5061900;28;20302;-52
2022/07/27 01:10:41;;;;;;;8.10;3.17;;;16.80;99.90;;;;;;5070782;28;20204;-52
2022/07/27 01:13:10;;;;;;;8.48;2.72;;;16.70;99.90;;;;;;5071482;28;20258;-52
2022/07/27 01:15:41;;;;;;;8.10;3.03;;;16.70;99.90;;;;;;5072106;28;20211;-52
2022/07/27 01:18:11;;;;;;;8.27;3.17;;;16.70;99.90;;;;;;5070731;28;20248;-52
2022/07/27 01:20:40;;;;;;;5.65;3.15;;;16.70;99.90;;;;;;5071643;28;20226;-52
2022/07/27 01:23:10;;;;;;;10.13;3.40;;;16.60;99.90;;;;;;5070898;28;20209;-53
2022/07/27 01:25:41;;;;;;;7.70;2.90;;;16.60;99.90;;;;;;5071784;28;20205;-51
2022/07/27 01:28:09;;;;;;;6.55;3.08;;;16.60;99.90;;;;;;5070339;28;20830;-52
2022/07/27 01:30:37;;;;;;;6.85;2.60;;;16.50;99.90;;;;;;5071307;28;20250;-52
2022/07/27 01:33:06;;;;;;;8.38;3.15;;;16.50;99.90;;;;;;5074072;28;20416;-52
2022/07/27 01:35:35;;;;;;;8.30;3.67;;;16.50;99.90;;;;;;5091458;28;20245;-51
2022/07/27 01:38:04;;;;;;;7.60;3.00;;;16.40;99.90;;;;;;5091119;28;20704;-52
2022/07/27 01:40:35;;;;;;;8.13;2.85;;;16.40;99.90;;;;;;5081440;28;20233;-52
2022/07/27 01:43:04;;;;;;;6.85;3.10;;;16.40;99.90;;;;;;5063129;28;20682;-51
2022/07/27 01:45:32;;;;;;;5.47;3.08;;;16.40;99.90;;;;;;5070555;28;20663;-51
2022/07/27 01:48:00;;;;;;;10.35;2.97;;;16.50;99.90;;;;;;5070732;28;20229;-52
2022/07/27 01:50:28;;;;;;;6.97;3.00;;;16.50;99.90;;;;;;5070772;28;20258;-52
2022/07/27 01:52:56;;;;;;;9.80;3.40;;;16.50;99.90;;;;;;5070352;28;20670;-52
2022/07/27 01:55:24;;;;;;;6.25;2.67;;;16.50;99.90;;;;;;5071024;28;20201;-52
2022/07/27 01:57:54;;;;;;;8.55;2.90;;;16.50;99.90;;;;;;5070727;28;20270;-51
2022/07/27 02:00:22;;;;;;;10.38;2.85;;;16.50;99.90;;;;;;5070629;28;20216;-52
2022/07/27 02:02:51;;;;;;;5.10;2.50;;;16.40;99.90;;;;;;5070592;28;20278;-52
2022/07/27 02:05:19;;;;;;;7.43;2.80;;;16.40;99.90;;;;;;5070513;28;20684;-52
2022/07/27 02:07:47;;;;;;;5.22;2.25;;;16.30;99.90;;;;;;5069766;28;20236;-51
2022/07/27 02:10:15;;;;;;;6.65;2.30;;;16.30;99.90;;;;;;5071262;28;20235;-52
2022/07/27 02:12:42;;;;;;;9.15;2.60;;;16.20;99.90;;;;;;5069790;28;20246;-52
2022/07/27 02:15:13;;;;;;;6.50;2.45;;;16.20;99.90;;;;;;5070159;28;20822;-52
2022/07/27 02:17:43;;;;;;;7.78;2.47;;;16.30;99.90;;;;;;5069605;28;20604;-52
2022/07/27 02:20:14;;;;;;;6.63;2.53;;;16.20;99.90;;;;;;5070188;28;20787;-52
2022/07/27 02:22:42;;;;;;;6.22;2.47;;;16.20;99.90;;;;;;5070230;28;20236;-52
2022/07/27 02:25:13;;;;;;;6.13;2.45;;;16.20;99.90;;;;;;5070418;28;20213;-52
2022/07/27 02:27:42;;;;;;;5.28;2.10;;;16.20;99.90;;;;;;5065416;28;20232;-52
2022/07/27 02:30:13;;;;;;;6.88;2.28;;;16.20;99.90;;;;;;5069494;28;20197;-53
2022/07/27 02:32:44;;;;;;;7.18;2.20;;;16.10;99.90;;;;;;5070245;28;20639;-52
2022/07/27 02:35:13;;;;;;;4.63;1.80;;;16.10;99.90;;;;;;5070499;28;20212;-52
2022/07/27 02:37:47;;;;;;;5.32;2.20;;;16.10;99.90;;;;;;5069299;28;20238;-52
2022/07/27 02:40:16;;;;;;;8.40;2.13;;;16.10;99.90;;;;;;5067078;28;20229;-52
2022/07/27 02:42:45;;;;;;;6.43;2.50;;;16.00;99.90;;;;;;5058780;28;20232;-52
2022/07/27 02:45:16;;;;;;;7.03;2.10;;;16.10;99.90;;;;;;5070141;28;20212;-52
2022/07/27 02:47:44;;;;;;;6.20;2.30;;;16.00;99.90;;;;;;5069854;28;20229;-52
2022/07/27 02:50:13;;;;;;;5.35;2.00;;;16.00;99.90;;;;;;5069895;28;20625;-52
2022/07/27 02:52:41;;;;;;;6.43;2.42;;;16.00;99.90;;;;;;5069029;28;20694;-52
2022/07/27 02:55:10;;;;;;;4.38;2.03;;;15.90;99.90;;;;;;5069193;28;20230;-52
2022/07/27 02:57:39;;;;;;;5.10;1.80;;;15.90;99.90;;;;;;5071724;28;20287;-52
2022/07/27 03:00:11;;;;;;;5.40;1.80;;;15.90;99.90;;;;;;5072090;28;20295;-50
2022/07/27 03:02:41;;;;;;;4.13;1.90;;;15.90;99.90;;;;;;5071203;28;20233;-52
2022/07/27 03:05:10;;;;;;;7.63;2.05;;;15.90;99.90;;;;;;5069911;28;20208;-52
2022/07/27 03:07:38;;;;;;;6.43;2.00;;;15.80;99.90;;;;;;5069005;28;20236;-51
2022/07/27 03:10:07;;;;;;;5.35;2.25;;;15.90;99.90;;;;;;5069636;28;20262;-52
2022/07/27 03:12:35;;;;;;;5.53;2.10;;;15.80;99.90;;;;;;5069393;28;20839;-52
2022/07/27 03:15:04;;;;;;;8.05;2.22;;;15.80;99.90;;;;;;5069727;28;20312;-52
2022/07/27 03:17:32;;;;;;;4.95;2.22;;;15.80;99.90;;;;;;5069180;28;20659;-52
2022/07/27 03:20:02;;;;;;;8.27;1.98;;;15.80;99.90;;;;;;5069520;28;20624;-52
2022/07/27 03:22:32;;;;;;;6.22;1.90;;;15.80;99.90;;;;;;5068636;28;20221;-52
2022/07/27 03:25:00;;;;;;;3.60;2.03;;;15.80;99.90;;;;;;5069731;28;20212;-52
2022/07/27 03:27:29;;;;;;;7.80;1.90;;;15.80;99.90;;;;;;5069010;28;20730;-52
2022/07/27 03:29:57;;;;;;;3.35;1.75;;;15.80;99.90;;;;;;5069096;28;20205;-52
2022/07/27 03:32:25;;;;;;;5.55;1.83;;;15.80;99.90;;;;;;5068421;28;20209;-52
2022/07/27 03:34:53;;;;;;;3.83;1.77;;;15.80;99.90;;;;;;5069632;28;20204;-50
2022/07/27 03:37:22;;;;;;;4.85;2.25;;;15.90;99.90;;;;;;5069064;28;20225;-52
2022/07/27 03:39:50;;;;;;;5.25;2.17;;;15.90;99.90;;;;;;5069005;28;20254;-52
2022/07/27 03:42:19;;;;;;;3.72;2.05;;;15.90;99.90;;;;;;5054863;28;20282;-52
2022/07/27 03:44:47;;;;;;;5.95;2.05;;;15.90;99.90;;;;;;5068890;28;20204;-52
2022/07/27 03:47:15;;;;;;;5.30;2.13;;;15.90;99.90;;;;;;5068521;28;20220;-52
2022/07/27 03:49:43;;;;;;;5.75;2.10;;;15.90;99.90;;;;;;5069190;28;20209;-51
2022/07/27 03:52:11;;;;;;;4.97;2.30;;;15.90;99.90;;;;;;5069121;28;20274;-52
2022/07/27 03:54:46;;;;;;;5.00;2.17;;;15.90;99.90;;;;;;5069218;28;20212;-52
2022/07/27 03:57:15;;;;;;;3.97;1.97;;;15.80;99.90;;;;;;5068317;28;20221;-52
2022/07/27 03:59:43;;;;;;;5.63;2.17;;;15.70;99.90;;;;;;5068910;28;20262;-52
2022/07/27 04:02:11;;;;;;;5.65;1.90;;;15.70;99.90;;;;;;5068939;28;20651;-51
2022/07/27 04:04:39;;;;;;;5.80;2.50;;;15.60;99.90;;;;;;5068871;28;20236;-52
2022/07/27 04:07:07;;;;;;;3.70;1.83;;;15.60;99.90;;;;;;5068450;28;20287;-52
2022/07/27 04:09:36;;;;;;;7.30;2.55;;;15.60;99.90;;;;;;5068813;28;20274;-51
2022/07/27 04:12:08;;;;;;;4.80;2.00;;;15.60;99.90;;;;;;5067564;28;20693;-51
2022/07/27 04:14:36;;;;;;;4.90;2.08;;;15.60;99.90;;;;;;5068622;28;20201;-53
2022/07/27 04:17:04;;;;;;;4.10;2.13;;;15.60;99.90;;;;;;5068557;28;20225;-52
2022/07/27 04:19:32;;;;;;;6.47;2.20;;;15.60;99.90;;;;;;5068685;28;20665;-52
2022/07/27 04:22:00;;;;;;;4.87;2.20;;;15.50;99.90;;;;;;5068134;28;20277;-52
2022/07/27 04:24:28;;;;;;;5.20;2.20;;;15.60;99.90;;;;;;5068246;28;20205;-52
2022/07/27 04:26:56;;;;;;;7.10;2.22;;;15.60;99.90;;;;;;5068329;28;20224;-51
2022/07/27 04:29:26;;;;;;;5.78;2.15;;;15.50;99.90;;;;;;5068415;28;20604;-52
2022/07/27 04:31:54;;;;;;;6.75;2.30;;;15.60;99.90;;;;;;5068498;28;20209;-51
2022/07/27 04:34:22;;;;;;;3.47;1.80;;;15.50;99.90;;;;;;5068419;28;20587;-51
2022/07/27 04:36:50;;;;;;;6.32;2.42;;;15.60;99.90;;;;;;5068440;28;20282;-51
2022/07/27 04:39:18;;;;;;;7.20;2.10;;;15.50;99.90;;;;;;5068205;28;20582;-51
2022/07/27 04:41:46;;;;;;;5.97;1.95;;;15.60;99.90;;;;;;5054392;28;20267;-51
2022/07/27 04:44:15;;;;;;;3.78;2.00;;;15.60;99.90;;;;;;5068603;28;20201;-51
2022/07/27 04:46:44;;;;;;;7.38;2.45;;;15.60;99.90;;;;;;5071471;28;20298;-52
2022/07/27 04:49:13;;;;;;;3.85;2.28;;;15.60;99.90;;;;;;5058771;28;20254;-51
2022/07/27 04:51:43;;;;;;;4.67;2.03;;;15.60;99.90;;;;;;5071900;28;20646;-52
2022/07/27 04:54:12;;;;;;;6.40;2.17;;;15.70;99.90;;;;;;5070264;28;20643;-51
2022/07/27 04:56:40;;;;;;;8.27;2.10;;;15.70;99.90;;;;;;5091633;28;20236;-51
2022/07/27 04:59:08;;;;;;;5.63;2.13;;;16.00;99.90;;;;;;5091262;28;20204;-52
2022/07/27 05:01:37;;;;;;;6.68;2.17;;;16.60;99.90;;;;;;5080941;28;20208;-52
2022/07/27 05:04:06;;;;;;;7.38;2.33;;;16.90;99.90;;;;;;5091869;28;20235;-51
2022/07/27 05:06:34;;;;;;;4.18;1.77;;;16.90;99.90;;;;;;5081866;28;20228;-52
2022/07/27 05:09:02;;;;;;;7.15;2.35;;;16.70;99.90;;;;;;5091814;28;20208;-51
2022/07/27 05:11:38;;;;;;;4.68;2.03;;;16.70;99.90;;;;;;5091853;28;20262;-51
2022/07/27 05:14:17;;;;;;;8.85;2.22;;;17.00;99.90;;;;;;5091929;28;20205;-51
2022/07/27 05:16:48;;;;;;;5.18;1.88;;;17.60;99.90;;;;;;5091264;28;20724;-52
2022/07/27 05:19:17;;;;;;;6.20;2.20;;;18.20;99.90;;;;;;5091719;28;20579;-52
2022/07/27 05:21:45;;;;;;;7.20;1.83;;;18.10;99.90;;;;;;5088951;28;20200;-51
2022/07/27 05:24:13;;;;;;;6.95;2.13;;;17.80;99.90;;;;;;5073728;28;20274;-51
2022/07/27 05:26:43;;;;;;;6.75;2.00;;;17.60;99.90;;;;;;5070492;28;20240;-52
2022/07/27 05:29:11;;;;;;;4.45;1.77;;;17.40;99.90;;;;;;5079682;28;20738;-51
2022/07/27 05:31:40;;;;;;;5.13;2.15;;;17.30;99.90;;;;;;5090893;28;20705;-52
2022/07/27 05:34:08;;;;;;;9.30;2.20;;;17.10;99.90;;;;;;5091430;28;20215;-52
2022/07/27 05:36:37;;;;;;;4.97;2.15;;;17.00;99.90;;;;;;5090968;28;20225;-51
2022/07/27 05:39:05;;;;;;;4.75;1.92;;;17.00;99.90;;;;;;5091079;28;20746;-52
2022/07/27 05:41:40;;;;;;;4.35;2.10;;;17.10;99.90;;;;;;5091542;28;20203;-52
2022/07/27 05:44:08;;;;;;;6.00;2.47;;;17.00;99.90;;;;;;5091560;28;20224;-52
2022/07/27 05:46:36;;;;;;;5.63;1.88;;;17.00;99.90;;;;;;5079997;28;20230;-52
2022/07/27 05:49:04;;;;;;;6.63;2.03;;;16.90;99.90;;;;;;5071103;28;20250;-52
2022/07/27 05:51:33;;;;;;;4.70;2.05;;;17.00;99.90;;;;;;5085216;28;20212;-52
2022/07/27 05:54:02;;;;;;;3.40;1.60;;;17.10;99.90;;;;;;5070456;28;20206;-52
2022/07/27 05:56:30;;;;;;;4.80;1.85;;;17.20;99.90;;;;;;5067345;28;20255;-52
2022/07/27 05:58:58;;;;;;;8.05;2.08;;;17.30;99.90;;;;;;5085704;28;20204;-52
2022/07/27 06:01:33;;;;;;;7.13;2.13;;;17.20;99.90;;;;;;5083114;28;20291;-52
2022/07/27 06:04:01;;;;;;;7.50;1.95;;;17.30;99.90;;;;;;5085702;28;20251;-52
2022/07/27 06:09:16;;;;;;;5.65;2.05;;;17.20;99.90;;;;;;5090054;28;20208;-52
2022/07/27 06:11:44;;;;;;;7.18;2.17;;;17.20;99.90;;;;;;5090548;28;20204;-52
2022/07/27 06:14:13;;;;;;;5.20;2.03;;;17.30;99.90;;;;;;5090269;28;20250;-52
2022/07/27 06:16:41;;;;;;;4.30;1.75;;;17.20;99.90;;;;;;5089855;28;20232;-51
2022/07/27 06:19:09;;;;;;;4.75;2.10;;;17.20;99.90;;;;;;5090818;28;20557;-51
2022/07/27 06:21:38;;;;;;;4.60;1.58;;;17.20;99.90;;;;;;5090027;28;20673;-52
2022/07/27 06:24:06;;;;;;;3.50;1.88;;;17.20;99.90;;;;;;5090347;28;20278;-50
2022/07/27 06:26:36;;;;;;;5.55;1.60;;;17.20;99.90;;;;;;5083150;28;20774;-50
2022/07/27 06:29:04;;;;;;;5.10;1.98;;;17.30;99.90;;;;;;5092743;28;20204;-51
2022/07/27 06:31:37;;;;;;;5.60;1.80;;;17.40;99.90;;;;;;5091704;28;20204;-52
2022/07/27 06:34:06;;;;;;;5.53;1.60;;;17.50;99.90;;;;;;5090169;28;20206;-50
2022/07/27 06:36:38;;;;;;;6.80;1.77;;;17.60;99.90;;;;;;5090323;28;20216;-52
2022/07/27 06:39:06;;;;;;;2.55;1.40;;;19.00;99.90;;;;;;5090085;28;20218;-51
2022/07/27 06:41:36;;;;;;;4.57;1.50;;;19.40;99.90;;;;;;5090089;28;20681;-51
2022/07/27 06:44:04;;;;;;;2.47;1.33;;;20.50;99.90;;;;;;5085901;28;20228;-51
2022/07/27 06:49:35;;;;;;;6.28;2.08;;;21.10;99.90;;;;;;5084221;28;20311;-52
2022/07/27 06:52:03;;;;;;;3.83;1.40;;;20.80;99.90;;;;;;5088852;28;20698;-52
2022/07/27 06:54:31;;;;;;;3.40;1.20;;;21.30;99.90;;;;;;5080396;28;20257;-52
2022/07/27 06:57:01;;;;;;;3.10;1.70;;;21.70;99.90;;;;;;5088670;28;20777;-52
2022/07/27 06:59:30;;;;;;;3.78;1.80;;;21.70;99.90;;;;;;5090239;28;20200;-51
2022/07/27 07:02:10;;;;;;;4.40;1.60;;;21.40;99.90;;;;;;5080329;28;20200;-52
2022/07/27 07:04:38;;;;;;;3.25;1.50;;;21.70;99.90;;;;;;5089992;28;20224;-52
2022/07/27 07:07:07;;;;;;;4.75;1.65;;;21.40;99.90;;;;;;5088180;28;20240;-52
2022/07/27 07:09:35;;;;;;;2.75;1.05;;;22.00;99.90;;;;;;5089520;28;20234;-51
2022/07/27 07:12:06;;;;;;;3.05;1.55;;;21.60;99.90;;;;;;5089772;28;20269;-52
2022/07/27 07:14:34;;;;;;;4.57;1.42;;;21.20;99.90;;;;;;5089216;28;20261;-51
2022/07/27 07:17:02;;;;;;;3.63;1.58;;;21.10;99.90;;;;;;5089554;28;20232;-52
2022/07/27 07:19:30;;;;;;;2.67;1.27;;;21.00;99.90;;;;;;5089549;28;20254;-52
2022/07/27 07:21:58;;;;;;;3.05;1.50;;;21.50;99.90;;;;;;5089193;28;20253;-52
2022/07/27 07:24:27;;;;;;;3.63;1.45;;;21.60;99.90;;;;;;5089397;28;20281;-52
2022/07/27 07:26:55;;;;;;;2.85;1.27;;;21.90;99.90;;;;;;5082106;28;20224;-52
2022/07/27 07:29:24;;;;;;;2.60;1.33;;;22.20;99.90;;;;;;5089782;28;20208;-52
2022/07/27 07:31:52;;;;;;;4.57;1.80;;;22.40;99.90;;;;;;5089318;28;20269;-52
2022/07/27 07:34:22;;;;;;;7.03;1.70;;;22.90;99.90;;;;;;5089426;28;20582;-52
2022/07/27 07:36:50;;;;;;;3.83;1.55;;;23.00;99.90;;;;;;5089310;28;20277;-52
2022/07/27 07:39:18;;;;;;;5.80;1.67;;;23.30;99.90;;;;;;5089057;28;20609;-51
2022/07/27 07:41:46;;;;;;;5.10;1.40;;;23.70;99.90;;;;;;5089516;28;20204;-52
2022/07/27 07:44:14;;;;;;;3.55;1.45;;;23.90;99.90;;;;;;5084296;28;20696;-52
2022/07/27 07:46:43;;;;;;;3.50;1.25;;;23.30;99.90;;;;;;5076887;28;20229;-51
2022/07/27 07:49:14;;;;;;;3.95;1.20;;;22.60;99.90;;;;;;5089898;28;20279;-52
2022/07/27 07:51:43;;;;;;;5.90;1.40;;;22.20;99.90;;;;;;5088195;28;20345;-52
2022/07/27 07:54:11;;;;;;;3.03;1.27;;;22.10;99.90;;;;;;5089101;28;20253;-52
2022/07/27 07:56:39;;;;;;;3.90;1.48;;;21.70;99.90;;;;;;5088983;28;20224;-52
2022/07/27 07:59:07;;;;;;;3.67;1.65;;;21.30;99.90;;;;;;5089083;28;20204;-51
2022/07/27 08:01:36;;;;;;;4.15;1.48;;;21.10;99.90;;;;;;5081234;28;20300;-52
2022/07/27 08:04:05;;;;;;;3.60;1.30;;;21.10;99.90;;;;;;5087776;28;20224;-52
2022/07/27 08:06:33;;;;;;;4.85;1.33;;;21.00;99.90;;;;;;5089068;28;20232;-52
2022/07/27 08:09:01;;;;;;;2.50;1.60;;;21.10;99.90;;;;;;5089480;28;20257;-52
2022/07/27 08:11:30;;;;;;;3.35;1.30;;;21.30;99.90;;;;;;5089101;28;20288;-52
2022/07/27 08:13:58;;;;;;;6.32;1.60;;;22.00;99.90;;;;;;5089177;28;20201;-51
2022/07/27 08:16:26;;;;;;;5.10;1.83;;;21.90;99.90;;;;;;5089457;28;20233;-51
2022/07/27 08:18:54;;;;;;;2.05;1.25;;;21.90;99.90;;;;;;5090248;28;20200;-51
2022/07/27 08:21:24;;;;;;;4.22;1.67;;;22.00;99.90;;;;;;5091139;28;20262;-51
2022/07/27 08:23:52;;;;;;;3.97;1.58;;;21.50;99.90;;;;;;5092526;28;20367;-52
2022/07/27 08:26:25;;;;;;;3.58;1.50;;;21.50;99.90;;;;;;5092981;28;20687;-51
2022/07/27 08:28:53;;;;;;;4.72;1.80;;;21.40;99.90;;;;;;5082707;28;20237;-52
2022/07/27 08:31:22;;;;;;;2.97;1.35;;;21.50;99.90;;;;;;5092482;28;20728;-52
2022/07/27 08:34:10;;;;;;;4.05;1.70;;;21.30;99.90;;;;;;5093005;28;20315;-52
2022/07/27 08:36:39;;;;;;;3.70;1.63;;;21.90;99.90;;;;;;5091963;28;20224;-52
2022/07/27 08:39:07;;;;;;;3.35;1.55;;;21.60;99.90;;;;;;5092660;28;20257;-52
2022/07/27 08:41:38;;;;;;;2.97;1.42;;;21.50;99.90;;;;;;5092367;28;20208;-52
2022/07/27 08:44:13;;;;;;;2.92;1.67;;;21.30;99.90;;;;;;5092913;28;20231;-52
2022/07/27 08:46:43;;;;;;;1.63;1.20;;;21.10;99.90;;;;;;5079871;28;20632;-51
2022/07/27 08:49:13;;;;;;;4.68;1.58;;;21.00;99.90;;;;;;5091750;28;20861;-51
2022/07/27 08:51:45;;;;;;;4.03;1.45;;;20.80;99.90;;;;;;5091134;28;20695;-51
2022/07/27 08:54:14;;;;;;;3.28;1.38;;;20.60;99.90;;;;;;5092232;28;20200;-51
2022/07/27 08:56:43;;;;;;;3.25;1.33;;;20.40;99.90;;;;;;5091990;28;20305;-51
2022/07/27 08:59:11;;;;;;;2.92;1.30;;;20.60;99.90;;;;;;5064440;28;20735;-51
2022/07/27 09:01:41;;;;;;;1.17;0.95;;;21.10;99.90;;;;;;5083258;28;20216;-51
2022/07/27 09:04:09;;;;;;;3.35;1.45;;;21.40;99.90;;;;;;5091057;28;20665;-51
2022/07/27 09:06:45;;;;;;;4.78;1.38;;;21.60;99.90;;;;;;5091877;28;20319;-51
2022/07/27 09:09:22;;;;;;;2.83;1.27;;;21.70;99.90;;;;;;5070938;28;20216;-51
2022/07/27 09:12:05;;;;;;;3.30;1.10;;;21.80;99.90;;;;;;5087529;28;20285;-52
2022/07/27 09:14:35;;;;;;;1.35;1.25;;;21.90;99.90;;;;;;5091300;28;20916;-52
2022/07/27 09:17:24;;;;;;;2.75;1.23;;;21.80;99.90;;;;;;5091776;28;20867;-51
2022/07/27 09:20:15;;;;;;;2.65;1.10;;;21.80;99.90;;;;;;5084080;28;20305;-51
2022/07/27 09:22:49;;;;;;;1.60;1.20;;;21.90;99.90;;;;;;5091377;28;20209;-51
2022/07/27 09:25:19;;;;;;;3.55;1.38;;;22.00;99.40;;;;;;5091729;28;20224;-51
2022/07/27 09:28:08;;;;;;;1.88;1.20;;;22.00;99.20;;;;;;5075301;28;20229;-52
2022/07/27 09:30:41;;;;;;;4.22;1.52;;;21.80;98.60;;;;;;5070621;28;20647;-51
2022/07/27 09:33:09;;;;;;;2.80;1.55;;;21.90;99.20;;;;;;5080852;28;20204;-52
2022/07/27 09:35:38;;;;;;;2.28;1.20;;;22.10;98.50;;;;;;5090930;28;20657;-52
2022/07/27 09:38:21;;;;;;;2.95;1.25;;;22.40;98.50;;;;;;5090634;28;20223;-51
2022/07/27 09:40:58;;;;;;;2.45;1.25;;;22.70;98.20;;;;;;5091266;28;20212;-51
2022/07/27 09:43:28;;;;;;;4.68;1.20;;;22.30;97.70;;;;;;5090219;28;20204;-51
2022/07/27 09:46:16;;;;;;;1.65;1.00;;;21.80;97.80;;;;;;5086057;28;20899;-51
2022/07/27 09:48:45;;;;;;;3.63;1.38;;;21.50;99.30;;;;;;5090677;28;20208;-51
2022/07/27 09:51:13;;;;;;;1.40;0.95;;;21.10;99.30;;;;;;5091145;28;20201;-51
2022/07/27 09:54:08;;;;;;;2.10;1.30;;;20.70;98.80;;;;;;5090520;28;20696;-50
2022/07/27 09:56:37;;;;;;;2.80;1.20;;;21.10;99.70;;;;;;5090928;28;20582;-51
2022/07/27 09:59:07;;;;;;;3.17;1.20;;;21.50;99.90;;;;;;5090599;28;20669;-52
2022/07/27 10:01:39;;;;;;;2.53;0.98;;;21.80;99.90;;;;;;5088166;28;20200;-51
2022/07/27 10:04:15;;;;;;;1.52;0.95;;;22.00;98.10;;;;;;5079662;28;20211;-51
2022/07/27 10:06:44;;;;;;;2.45;1.33;;;21.70;98.10;;;;;;5090864;28;20232;-51
2022/07/27 10:09:33;;;;;;;2.33;1.20;;;22.00;98.60;;;;;;5090710;28;20569;-51
2022/07/27 10:12:03;;;;;;;2.75;1.30;;;22.00;98.80;;;;;;5090798;28;20212;-51
2022/07/27 10:14:32;;;;;;;3.90;1.33;;;22.00;98.30;;;;;;5090702;28;20253;-51
2022/07/27 10:17:01;;;;;;;2.40;1.00;;;21.80;97.20;;;;;;5090494;28;20216;-51
2022/07/27 10:19:38;;;;;;;3.20;0.93;;;22.30;97.40;;;;;;5090676;28;20212;-51
2022/07/27 10:22:06;;;;;;;1.15;0.80;;;22.40;95.50;;;;;;5089262;28;20211;-51
2022/07/27 10:24:36;;;;;;;1.98;1.00;;;22.60;95.50;;;;;;5089884;28;20239;-51
2022/07/27 10:27:19;;;;;;;2.10;0.95;;;23.00;95.30;;;;;;5090169;28;20232;-51
2022/07/27 10:29:47;;;;;;;4.53;1.52;;;23.10;95.90;;;;;;5090390;28;20211;-51
2022/07/27 10:32:24;;;;;;;2.60;1.10;;;22.60;96.00;;;;;;5089938;28;20234;-51
2022/07/27 10:34:53;;;;;;;2.13;0.85;;;22.30;96.10;;;;;;5090675;28;20208;-51
2022/07/27 10:37:26;;;;;;;4.05;1.30;;;21.80;96.30;;;;;;5090036;28;20220;-51
2022/07/27 10:42:39;;;;;;;2.80;0.98;;;21.50;96.40;;;;;;5090008;28;20199;-51
2022/07/27 10:45:09;;;;;;;3.05;1.30;;;21.80;96.10;;;;;;5089782;28;20216;-51
2022/07/27 10:47:40;;;;;;;4.25;1.13;;;22.20;98.40;;;;;;5079180;28;20228;-51
2022/07/27 10:50:30;;;;;;;2.78;0.80;;;22.60;95.80;;;;;;5090169;28;20257;-51
2022/07/27 10:53:06;;;;;;;1.35;0.80;;;22.90;95.90;;;;;;5084444;28;20227;-51
2022/07/27 10:55:43;;;;;;;2.08;1.02;;;22.70;94.60;;;;;;5089031;28;20207;-51
2022/07/27 10:58:43;;;;;;;1.60;1.13;;;22.50;95.40;;;;;;5090158;28;20235;-51
2022/07/27 11:01:12;;;;;;;1.65;0.95;;;22.40;94.70;;;;;;5062932;28;20246;-51
2022/07/27 11:03:48;;;;;;;3.20;1.20;;;22.20;95.30;;;;;;5077363;28;20212;-51
2022/07/27 11:06:22;;;;;;;1.48;0.85;;;22.10;95.50;;;;;;5087569;28;20709;-51
2022/07/27 11:09:04;;;;;;;3.97;1.30;;;22.00;94.90;;;;;;5089773;28;20208;-51
2022/07/27 11:11:55;;;;;;;2.45;1.05;;;22.10;95.40;;;;;;5089617;28;20257;-51
2022/07/27 11:14:29;;;;;;;1.13;0.68;;;22.30;94.90;;;;;;5089305;28;20285;-51
2022/07/27 11:16:59;;;;;;;1.65;1.00;;;22.40;95.80;;;;;;5088622;28;20230;-51
2022/07/27 11:19:53;;;;;;;2.03;1.02;;;22.30;94.70;;;;;;5075269;28;20204;-51
2022/07/27 11:22:31;;;;;;;1.85;0.95;;;22.80;95.90;;;;;;5089494;28;20253;-51
2022/07/27 11:25:19;;;;;;;3.90;1.02;;;23.00;94.40;;;;;;5089847;28;20626;-51
2022/07/27 11:27:50;;;;;;;5.32;1.10;;;23.00;95.00;;;;;;5075482;28;20578;-51
2022/07/27 11:30:23;;;;;;;1.80;0.80;;;23.00;94.80;;;;;;5061859;28;20230;-51
2022/07/27 11:32:51;;;;;;;2.85;1.00;;;22.90;94.20;;;;;;5089235;28;20204;-51
2022/07/27 11:35:19;;;;;;;3.65;1.10;;;23.10;95.50;;;;;;5089510;28;20674;-51
2022/07/27 11:37:58;;;;;;;3.20;0.98;;;23.30;94.90;;;;;;5088626;28;20228;-51
2022/07/27 11:40:26;;;;;;;2.53;1.10;;;23.40;93.10;;;;;;5089089;28;20200;-51
2022/07/27 11:43:31;;;;;;;4.55;1.10;;;23.50;93.80;;;;;;5074160;28;20287;-51
2022/07/27 11:46:15;;;;;;;2.80;1.13;;;23.80;94.50;;;;;;5068616;28;20221;-51
2022/07/27 11:48:51;;;;;;;1.95;1.13;;;23.40;91.60;;;;;;5077400;28;20203;-51
2022/07/27 11:51:38;;;;;;;3.83;1.20;;;23.40;92.80;;;;;;5082549;28;20558;-52
2022/07/27 11:54:08;;;;;;;1.88;1.30;;;23.40;94.30;;;;;;5090457;28;20634;-51
2022/07/27 11:56:37;;;;;;;4.00;1.35;;;23.30;94.90;;;;;;5093317;28;20224;-51
2022/07/27 11:59:15;;;;;;;2.50;1.20;;;23.30;94.70;;;;;;5092763;28;20628;-51
2022/07/27 12:01:47;;;;;;;5.35;1.27;;;22.90;93.80;;;;;;5083840;28;20737;-51
2022/07/27 12:04:21;;;;;;;4.55;1.45;;;23.10;94.00;;;;;;5080674;28;20216;-52
2022/07/27 12:07:03;;;;;;;4.40;1.13;;;23.10;93.30;;;;;;5093230;28;20227;-50
2022/07/27 12:09:34;;;;;;;1.52;1.05;;;23.30;93.30;;;;;;5093064;28;20208;-52
2022/07/27 12:12:12;;;;;;;4.07;1.17;;;23.20;92.30;;;;;;5092999;28;20208;-50
2022/07/27 12:14:44;;;;;;;2.90;1.15;;;23.10;92.20;;;;;;5071422;28;20665;-51
2022/07/27 12:17:19;;;;;;;2.10;1.30;;;22.80;92.80;;;;;;5069426;28;20217;-51
2022/07/27 12:19:53;;;;;;;4.95;1.30;;;22.80;92.90;;;;;;5089786;28;20206;-51
2022/07/27 12:22:27;;;;;;;5.30;1.30;;;22.80;92.70;;;;;;5091262;28;20208;-51
2022/07/27 12:24:57;;;;;;;4.88;1.60;;;22.70;92.80;;;;;;5091119;28;20276;-51
2022/07/27 12:27:27;;;;;;;3.28;1.17;;;22.80;92.80;;;;;;5091306;28;20297;-51
2022/07/27 12:30:01;;;;;;;4.30;1.10;;;22.60;92.40;;;;;;5091071;28;20669;-51
2022/07/27 12:32:32;;;;;;;1.75;1.20;;;22.60;92.10;;;;;;5091313;28;20266;-52
2022/07/27 12:35:01;;;;;;;3.88;1.17;;;22.80;93.20;;;;;;5091953;28;20215;-51
2022/07/27 12:37:31;;;;;;;3.95;1.33;;;22.90;92.40;;;;;;5090594;28;20297;-50
2022/07/27 12:40:00;;;;;;;1.98;1.15;;;23.50;93.70;;;;;;5091842;28;20212;-51
2022/07/27 12:42:35;;;;;;;2.30;1.10;;;23.70;93.60;;;;;;5078426;28;20204;-51
2022/07/27 12:45:20;;;;;;;2.80;1.10;;;23.80;91.80;;;;;;5071881;28;20208;-51
2022/07/27 12:47:48;;;;;;;4.05;1.30;;;24.00;92.30;;;;;;5076612;28;20245;-51
2022/07/27 12:50:19;;;;;;;3.42;1.20;;;24.00;91.70;;;;;;5091691;28;20624;-52
2022/07/27 12:52:50;;;;;;;1.20;0.73;;;23.80;91.20;;;;;;5091022;28;20282;-52
2022/07/27 12:55:20;;;;;;;2.00;1.10;;;23.70;90.90;;;;;;5071075;28;20206;-51
2022/07/27 12:57:52;;;;;;;2.28;1.42;;;23.40;90.00;;;;;;5078680;28;20220;-51
2022/07/27 13:00:28;;;;;;;3.70;1.17;;;23.00;90.90;;;;;;5090668;28;20945;-51
2022/07/27 13:03:01;;;;;;;1.88;0.93;;;22.70;90.50;;;;;;5073748;28;20200;-51
2022/07/27 13:05:30;;;;;;;2.67;1.20;;;22.80;90.40;;;;;;5082313;28;20212;-51
2022/07/27 13:07:58;;;;;;;3.90;1.30;;;22.80;91.10;;;;;;5072637;28;20228;-51
2022/07/27 13:10:26;;;;;;;5.22;1.30;;;23.00;91.80;;;;;;5091421;28;20295;-52
2022/07/27 13:12:55;;;;;;;3.47;1.17;;;23.20;91.90;;;;;;5090842;28;20205;-51